Time;durP1;ratioP1;P1;durP2;ratioP2;P2;SDS_P1;SDS_P2;PMS_P1;PMS_P2;Temp;Humidity;BMP_temperature;BMP_pressure;BME280_temperature;BME280_humidity;BME280_pressure;Samples;Min_cycle;Max_cycle;Signal;HPM_P1;HPM_P2
2021/12/08 00:01:36;;;;;;;2.10;1.17;;;3.40;1.00;;;;;;5072557;28;20504;-60
2021/12/08 00:04:04;;;;;;;3.33;1.30;;;3.40;1.00;;;;;;5072912;28;20520;-60
2021/12/08 00:06:31;;;;;;;4.10;1.40;;;3.40;1.00;;;;;;5072782;28;20443;-60
2021/12/08 00:09:06;;;;;;;3.43;1.47;;;3.50;1.00;;;;;;5072851;28;20439;-61
2021/12/08 00:14:17;;;;;;;4.90;1.40;;;3.50;1.00;;;;;;5072750;28;20986;-61
2021/12/08 00:16:44;;;;;;;2.00;0.90;;;3.50;1.00;;;;;;5072642;28;20481;-59
2021/12/08 00:19:13;;;;;;;3.83;1.37;;;3.60;1.00;;;;;;5072002;28;20483;-60
2021/12/08 00:21:39;;;;;;;3.07;1.70;;;3.60;1.00;;;;;;5072001;28;20451;-59
2021/12/08 00:24:07;;;;;;;1.60;0.80;;;3.70;1.00;;;;;;5072619;28;20976;-59
2021/12/08 00:26:35;;;;;;;1.23;1.07;;;3.80;1.00;;;;;;5072613;28;20451;-59
2021/12/08 00:29:03;;;;;;;3.97;1.73;;;3.80;1.00;;;;;;5072645;28;20451;-58
2021/12/08 00:31:29;;;;;;;4.87;1.30;;;3.80;1.00;;;;;;5072161;28;20477;-60
2021/12/08 00:33:56;;;;;;;4.07;1.40;;;3.90;1.00;;;;;;5072157;28;20540;-58
2021/12/08 00:36:30;;;;;;;3.03;1.40;;;4.00;1.00;;;;;;5072142;28;20451;-60
2021/12/08 00:38:57;;;;;;;4.47;1.30;;;4.10;1.00;;;;;;5072041;28;20479;-60
2021/12/08 00:41:24;;;;;;;2.00;1.30;;;4.30;1.00;;;;;;5072054;28;20509;-59
2021/12/08 00:43:50;;;;;;;2.90;1.47;;;4.40;1.00;;;;;;5072091;28;20467;-60
2021/12/08 00:46:17;;;;;;;3.93;1.90;;;4.40;1.00;;;;;;5072251;28;20451;-60
2021/12/08 00:48:48;;;;;;;4.27;1.70;;;4.50;1.00;;;;;;5071786;28;20477;-60
2021/12/08 00:51:15;;;;;;;2.10;1.40;;;4.50;1.00;;;;;;5072080;28;20451;-60
2021/12/08 00:53:44;;;;;;;2.33;1.20;;;4.40;1.00;;;;;;5072141;28;20467;-61
2021/12/08 00:56:11;;;;;;;4.23;1.40;;;4.30;1.00;;;;;;5072122;28;20258;-59
2021/12/08 00:58:38;;;;;;;2.30;1.40;;;4.30;1.00;;;;;;5072128;28;20474;-61
2021/12/08 01:01:07;;;;;;;4.33;1.27;;;4.30;1.00;;;;;;5071763;28;20501;-58
2021/12/08 01:03:34;;;;;;;5.17;1.70;;;4.30;1.00;;;;;;5071893;28;20471;-60
2021/12/08 01:06:01;;;;;;;2.60;1.50;;;4.30;1.00;;;;;;5072116;28;20451;-59
2021/12/08 01:08:30;;;;;;;1.53;1.10;;;4.30;1.00;;;;;;5071969;28;20451;-61
2021/12/08 01:11:01;;;;;;;2.20;1.20;;;4.30;1.00;;;;;;5071660;28;20439;-60
2021/12/08 01:13:29;;;;;;;3.33;1.43;;;4.20;1.00;;;;;;5071447;28;20975;-60
2021/12/08 01:15:58;;;;;;;2.70;1.50;;;4.10;1.00;;;;;;5071684;28;20977;-60
2021/12/08 01:18:26;;;;;;;2.97;1.90;;;4.00;1.00;;;;;;5071946;28;20451;-60
2021/12/08 01:20:53;;;;;;;2.63;1.40;;;3.90;1.00;;;;;;5071723;28;20483;-60
2021/12/08 01:23:21;;;;;;;3.70;1.67;;;3.90;1.00;;;;;;5071363;28;20518;-59
2021/12/08 01:25:48;;;;;;;3.23;2.00;;;3.90;1.00;;;;;;5071853;28;20451;-60
2021/12/08 01:28:19;;;;;;;2.20;1.63;;;3.90;1.00;;;;;;5071596;28;20447;-60
2021/12/08 01:30:46;;;;;;;4.33;1.90;;;3.80;1.00;;;;;;5074013;28;20530;-60
2021/12/08 01:33:13;;;;;;;5.23;1.70;;;3.80;1.00;;;;;;5075559;28;20455;-61
2021/12/08 01:35:39;;;;;;;1.97;1.50;;;3.80;1.00;;;;;;5075733;28;21016;-61
2021/12/08 01:38:06;;;;;;;2.30;1.23;;;3.70;1.00;;;;;;5075936;28;20846;-60
2021/12/08 01:40:33;;;;;;;5.83;2.10;;;3.80;1.00;;;;;;5075648;28;20474;-60
2021/12/08 01:43:02;;;;;;;2.20;1.60;;;3.80;1.00;;;;;;5075465;28;20469;-59
2021/12/08 01:48:20;;;;;;;5.57;1.90;;;3.70;1.00;;;;;;5075749;28;20426;-60
2021/12/08 01:50:50;;;;;;;2.83;1.77;;;3.80;1.00;;;;;;5075493;28;20846;-59
2021/12/08 01:53:18;;;;;;;2.90;1.80;;;3.80;1.00;;;;;;5074958;28;20450;-60
2021/12/08 01:55:45;;;;;;;5.47;2.10;;;3.80;1.00;;;;;;5075224;28;21020;-57
2021/12/08 01:58:15;;;;;;;5.27;1.80;;;3.80;1.00;;;;;;5075275;28;20974;-58
2021/12/08 02:00:47;;;;;;;1.20;1.10;;;3.90;1.00;;;;;;5075211;28;20902;-58
2021/12/08 02:03:14;;;;;;;2.57;1.50;;;3.90;1.00;;;;;;5075069;28;20459;-58
2021/12/08 02:05:41;;;;;;;1.70;1.60;;;3.90;1.00;;;;;;5075170;28;20985;-59
2021/12/08 02:08:08;;;;;;;4.73;1.87;;;3.90;1.00;;;;;;5074974;28;20504;-58
2021/12/08 02:10:38;;;;;;;2.90;1.47;;;3.90;1.00;;;;;;5075234;28;20423;-58
2021/12/08 02:13:05;;;;;;;3.33;1.60;;;4.00;1.00;;;;;;5074605;28;20451;-61
2021/12/08 02:15:33;;;;;;;5.23;1.73;;;4.00;1.00;;;;;;5074966;28;21144;-61
2021/12/08 02:18:01;;;;;;;1.60;1.50;;;4.00;1.00;;;;;;5075095;28;20945;-59
2021/12/08 02:20:29;;;;;;;4.93;1.67;;;4.00;1.00;;;;;;5074724;28;20483;-59
2021/12/08 02:22:58;;;;;;;3.43;1.73;;;4.10;1.00;;;;;;5074548;28;20455;-59
2021/12/08 02:25:27;;;;;;;4.53;1.77;;;4.10;1.00;;;;;;5075183;28;20520;-59
2021/12/08 02:27:57;;;;;;;3.23;2.07;;;4.10;1.00;;;;;;5074665;28;20447;-59
2021/12/08 02:30:30;;;;;;;2.60;1.60;;;4.20;1.00;;;;;;5075031;28;20446;-61
2021/12/08 02:47:03;;;;;;;2.83;1.60;;;4.50;1.00;;;;;;5074456;28;20476;-59
2021/12/08 02:49:31;;;;;;;4.07;1.57;;;4.50;1.00;;;;;;5074432;28;20865;-59
2021/12/08 02:51:58;;;;;;;2.77;1.60;;;4.60;1.00;;;;;;5073998;28;20451;-59
2021/12/08 02:54:33;;;;;;;3.53;1.40;;;4.60;1.00;;;;;;5074510;28;20472;-59
2021/12/08 02:56:59;;;;;;;2.07;1.67;;;4.60;1.00;;;;;;5074344;28;20212;-61
2021/12/08 02:59:26;;;;;;;2.83;1.50;;;4.70;1.00;;;;;;5074181;28;20668;-59
2021/12/08 03:01:53;;;;;;;3.03;2.07;;;4.70;1.00;;;;;;5073780;28;20534;-59
2021/12/08 03:04:19;;;;;;;3.37;1.63;;;4.70;1.00;;;;;;5073968;28;20478;-59
2021/12/08 03:06:46;;;;;;;2.00;1.30;;;4.80;1.00;;;;;;5074093;28;20213;-59
2021/12/08 03:09:13;;;;;;;2.60;1.47;;;4.80;1.00;;;;;;5074050;28;20205;-59
2021/12/08 03:11:41;;;;;;;6.40;1.73;;;4.80;1.00;;;;;;5073783;28;20478;-59
2021/12/08 03:14:11;;;;;;;2.87;1.37;;;4.90;1.00;;;;;;5073821;28;20225;-61
2021/12/08 03:16:42;;;;;;;2.70;1.30;;;4.90;1.00;;;;;;5073851;28;20252;-61
2021/12/08 03:19:09;;;;;;;1.90;1.30;;;4.90;1.00;;;;;;5074022;28;20665;-59
2021/12/08 03:21:36;;;;;;;4.70;1.40;;;5.00;1.00;;;;;;5073549;28;20490;-59
2021/12/08 03:24:16;;;;;;;4.13;1.50;;;5.00;1.00;;;;;;5073862;28;20225;-59
2021/12/08 03:26:54;;;;;;;2.23;1.20;;;5.20;1.00;;;;;;5073892;28;20648;-59
2021/12/08 03:29:27;;;;;;;3.13;1.30;;;5.20;1.00;;;;;;5073603;28;20209;-59
2021/12/08 03:32:03;;;;;;;3.80;1.27;;;5.20;1.00;;;;;;5073698;28;20198;-59
2021/12/08 03:34:31;;;;;;;3.53;1.50;;;5.20;1.00;;;;;;5073481;28;20247;-60
2021/12/08 03:36:58;;;;;;;4.17;1.60;;;5.20;1.00;;;;;;5073441;28;20302;-60
2021/12/08 03:39:25;;;;;;;3.23;1.43;;;5.30;1.00;;;;;;5073376;28;20330;-59
2021/12/08 03:41:53;;;;;;;2.27;1.00;;;5.30;1.00;;;;;;5073003;28;20209;-58
2021/12/08 03:44:20;;;;;;;1.57;1.20;;;5.40;1.00;;;;;;5073392;28;20755;-59
2021/12/08 03:46:47;;;;;;;3.20;1.30;;;5.40;1.00;;;;;;5073615;28;20610;-59
2021/12/08 03:49:17;;;;;;;4.27;1.47;;;5.40;1.00;;;;;;5073431;28;20206;-59
2021/12/08 03:51:44;;;;;;;3.47;1.50;;;5.40;1.00;;;;;;5072748;28;20203;-59
2021/12/08 03:54:12;;;;;;;4.13;1.10;;;5.40;1.00;;;;;;5072051;28;20221;-59
2021/12/08 03:56:40;;;;;;;3.80;1.30;;;5.40;1.00;;;;;;5073298;28;20239;-59
2021/12/08 03:59:08;;;;;;;5.03;1.87;;;5.50;1.00;;;;;;5073246;28;20655;-59
2021/12/08 04:01:35;;;;;;;1.47;0.80;;;5.50;1.00;;;;;;5072661;28;20227;-59
2021/12/08 04:04:06;;;;;;;2.07;1.10;;;5.50;1.00;;;;;;5073085;28;20235;-59
2021/12/08 04:06:41;;;;;;;3.53;1.23;;;5.50;1.00;;;;;;5073184;28;20217;-58
2021/12/08 04:09:16;;;;;;;3.20;1.47;;;5.40;1.00;;;;;;5073024;28;20628;-59
2021/12/08 04:11:44;;;;;;;2.70;1.40;;;5.40;1.00;;;;;;5072701;28;20608;-60
2021/12/08 04:14:16;;;;;;;4.10;1.20;;;5.40;1.00;;;;;;5072603;28;20762;-60
2021/12/08 04:16:47;;;;;;;3.83;1.40;;;5.40;1.00;;;;;;5072754;28;20452;-61
2021/12/08 04:19:14;;;;;;;3.23;1.40;;;5.40;1.00;;;;;;5073324;28;20205;-60
2021/12/08 04:21:41;;;;;;;4.93;1.67;;;5.50;1.00;;;;;;5072907;28;20226;-61
2021/12/08 04:24:10;;;;;;;6.93;1.70;;;5.50;1.00;;;;;;5072090;28;20720;-60
2021/12/08 04:26:40;;;;;;;2.37;1.03;;;5.50;1.00;;;;;;5072716;28;20212;-61
2021/12/08 04:29:09;;;;;;;1.97;1.40;;;5.50;1.00;;;;;;5073312;28;20221;-61
2021/12/08 04:31:39;;;;;;;4.27;1.43;;;5.60;1.00;;;;;;5072533;28;20322;-60
2021/12/08 04:34:12;;;;;;;3.77;1.30;;;5.60;1.00;;;;;;5072376;28;20241;-59
2021/12/08 04:36:44;;;;;;;2.63;1.03;;;5.50;1.00;;;;;;5072404;28;20686;-61
2021/12/08 04:39:18;;;;;;;4.30;1.33;;;5.60;1.00;;;;;;5072709;28;20229;-60
2021/12/08 04:41:50;;;;;;;4.60;1.43;;;5.60;1.00;;;;;;5071776;28;20234;-59
2021/12/08 04:44:25;;;;;;;3.60;1.50;;;5.50;1.00;;;;;;5072111;28;20703;-59
2021/12/08 04:47:15;;;;;;;1.87;1.10;;;5.50;1.00;;;;;;5072163;28;20674;-60
2021/12/08 04:52:37;;;;;;;2.60;1.20;;;5.50;1.00;;;;;;5071739;28;20741;-60
2021/12/08 05:00:58;;;;;;;4.13;1.50;;;5.50;1.00;;;;;;5072290;28;20229;-60
2021/12/08 05:03:44;;;;;;;4.83;1.40;;;5.50;1.00;;;;;;5071952;28;20717;-61
2021/12/08 05:06:22;;;;;;;3.70;1.20;;;5.40;1.00;;;;;;5072830;28;20212;-60
2021/12/08 05:08:52;;;;;;;2.67;1.20;;;5.50;1.00;;;;;;5073116;28;20209;-61
2021/12/08 05:11:21;;;;;;;4.20;1.40;;;5.50;1.00;;;;;;5073228;28;20272;-61
2021/12/08 05:13:51;;;;;;;6.03;1.50;;;5.40;1.00;;;;;;5072083;28;20281;-60
2021/12/08 05:16:20;;;;;;;2.50;1.27;;;5.40;1.00;;;;;;5091642;28;21313;-61
2021/12/08 05:18:51;;;;;;;3.63;1.57;;;5.40;1.00;;;;;;5089911;28;20265;-61
2021/12/08 05:21:22;;;;;;;5.07;1.50;;;5.40;1.00;;;;;;5112129;28;20222;-60
2021/12/08 05:23:53;;;;;;;4.93;1.40;;;5.40;1.00;;;;;;5112338;28;20687;-60
2021/12/08 05:26:24;;;;;;;6.37;1.73;;;5.40;1.00;;;;;;5112569;28;20214;-60
2021/12/08 05:28:54;;;;;;;3.87;1.40;;;5.30;1.00;;;;;;5112315;28;20219;-59
2021/12/08 05:31:25;;;;;;;3.87;1.57;;;5.40;1.00;;;;;;5111654;28;20669;-60
2021/12/08 05:33:55;;;;;;;4.53;1.80;;;5.40;1.00;;;;;;5112301;28;20664;-62
2021/12/08 05:36:23;;;;;;;1.63;1.50;;;5.40;1.00;;;;;;5097214;28;20664;-60
2021/12/08 05:38:51;;;;;;;5.57;2.17;;;5.40;1.00;;;;;;5096966;28;20650;-60
2021/12/08 05:41:23;;;;;;;4.30;2.07;;;5.40;1.00;;;;;;5091176;28;20306;-60
2021/12/08 05:43:50;;;;;;;4.40;1.70;;;5.40;1.00;;;;;;5091699;28;20226;-60
2021/12/08 05:46:19;;;;;;;5.33;1.93;;;5.40;1.00;;;;;;5091626;28;20921;-61
2021/12/08 05:48:48;;;;;;;2.70;1.40;;;5.40;1.00;;;;;;5083531;28;20205;-60
2021/12/08 05:51:19;;;;;;;4.40;1.70;;;5.40;1.00;;;;;;5070729;28;20284;-60
2021/12/08 05:53:49;;;;;;;4.07;1.87;;;5.40;1.00;;;;;;5071149;28;20257;-60
2021/12/08 05:56:17;;;;;;;3.80;1.70;;;5.40;1.00;;;;;;5070986;28;20613;-60
2021/12/08 05:58:47;;;;;;;4.93;1.70;;;5.40;1.00;;;;;;5070671;28;20217;-60
2021/12/08 06:01:17;;;;;;;11.10;4.43;;;5.40;1.00;;;;;;5070698;28;20225;-61
2021/12/08 06:03:45;;;;;;;4.23;2.03;;;5.30;1.00;;;;;;5070917;28;20268;-60
2021/12/08 06:06:12;;;;;;;4.30;1.73;;;5.40;1.00;;;;;;5070780;28;20210;-60
2021/12/08 06:08:41;;;;;;;4.33;1.70;;;5.40;1.00;;;;;;5070448;28;20615;-60
2021/12/08 06:11:10;;;;;;;6.57;1.93;;;5.40;1.00;;;;;;5070463;28;20201;-61
2021/12/08 06:13:38;;;;;;;6.40;2.47;;;5.40;1.00;;;;;;5070759;28;20221;-60
2021/12/08 06:16:06;;;;;;;4.13;1.77;;;5.30;1.00;;;;;;5070634;28;20210;-60
2021/12/08 06:18:38;;;;;;;5.17;1.80;;;5.30;1.00;;;;;;5073852;28;20275;-60
2021/12/08 06:21:07;;;;;;;5.23;2.10;;;5.30;1.00;;;;;;5074383;28;20627;-60
2021/12/08 06:23:35;;;;;;;3.33;2.07;;;5.20;1.00;;;;;;5074418;28;20261;-60
2021/12/08 06:26:04;;;;;;;5.53;1.97;;;5.20;1.00;;;;;;5074246;28;20205;-60
2021/12/08 06:28:31;;;;;;;6.77;2.30;;;5.10;1.00;;;;;;5098187;28;20200;-57
2021/12/08 06:30:58;;;;;;;3.80;1.83;;;5.10;1.00;;;;;;5114895;28;20648;-59
2021/12/08 06:33:26;;;;;;;4.53;1.80;;;5.10;1.00;;;;;;5114490;28;20220;-59
2021/12/08 06:35:56;;;;;;;6.70;2.00;;;5.00;1.00;;;;;;5114663;28;20214;-58
2021/12/08 06:38:24;;;;;;;7.03;2.00;;;5.00;1.00;;;;;;5114499;28;20630;-60
2021/12/08 06:40:57;;;;;;;2.90;2.00;;;4.90;1.00;;;;;;5114462;28;20281;-59
2021/12/08 06:43:28;;;;;;;5.50;2.20;;;4.90;1.00;;;;;;5114379;28;20223;-59
2021/12/08 06:45:58;;;;;;;2.47;1.70;;;4.90;1.00;;;;;;5114748;28;20619;-59
2021/12/08 06:48:29;;;;;;;3.00;1.80;;;4.90;1.00;;;;;;5113974;28;20684;-59
2021/12/08 06:50:59;;;;;;;7.03;2.10;;;4.90;1.00;;;;;;5114578;28;20214;-60
2021/12/08 06:53:27;;;;;;;3.90;2.53;;;4.80;1.00;;;;;;5097127;28;20274;-59
2021/12/08 06:55:57;;;;;;;4.47;1.97;;;4.80;1.00;;;;;;5094202;28;20262;-58
2021/12/08 06:58:28;;;;;;;4.43;2.47;;;4.80;1.00;;;;;;5094017;28;20208;-55
2021/12/08 07:01:11;;;;;;;6.77;2.43;;;4.80;1.00;;;;;;5093732;28;20482;-59
2021/12/08 07:03:53;;;;;;;7.37;2.37;;;4.70;1.00;;;;;;5093850;28;20282;-59
2021/12/08 07:06:44;;;;;;;3.97;1.90;;;4.70;1.00;;;;;;5093980;28;20204;-59
2021/12/08 07:09:14;;;;;;;6.40;2.77;;;4.70;1.00;;;;;;5093746;28;20208;-59
2021/12/08 07:11:41;;;;;;;6.87;2.10;;;4.70;1.00;;;;;;5093208;28;20446;-63
2021/12/08 07:14:10;;;;;;;4.30;1.93;;;4.70;1.00;;;;;;5093616;28;20232;-60
2021/12/08 07:16:40;;;;;;;6.47;2.10;;;4.70;1.00;;;;;;5093435;28;20446;-60
2021/12/08 07:19:11;;;;;;;3.83;1.90;;;4.80;1.00;;;;;;5093240;28;20665;-61
2021/12/08 07:21:42;;;;;;;5.73;1.80;;;4.80;1.00;;;;;;5093338;28;20473;-60
2021/12/08 07:24:14;;;;;;;3.87;1.80;;;4.80;1.00;;;;;;5093462;28;20539;-60
2021/12/08 07:26:43;;;;;;;5.80;1.80;;;4.90;1.00;;;;;;5093286;28;20708;-61
2021/12/08 07:29:14;;;;;;;7.00;2.30;;;4.90;1.00;;;;;;5093195;28;20262;-61
2021/12/08 07:31:46;;;;;;;6.17;2.20;;;5.00;1.00;;;;;;5093178;28;21047;-61
2021/12/08 07:34:18;;;;;;;7.73;2.10;;;5.00;1.00;;;;;;5093216;28;20228;-61
2021/12/08 07:36:47;;;;;;;7.97;1.90;;;5.00;1.00;;;;;;5093111;28;20669;-61
2021/12/08 07:39:17;;;;;;;4.40;1.43;;;5.00;1.00;;;;;;5092888;28;20444;-62
2021/12/08 07:41:52;;;;;;;4.17;1.53;;;5.00;1.00;;;;;;5092511;28;20231;-63
2021/12/08 07:44:23;;;;;;;4.13;1.60;;;5.10;1.00;;;;;;5093445;28;20307;-61
2021/12/08 07:46:54;;;;;;;6.93;1.80;;;5.20;1.00;;;;;;5093066;28;20792;-60
2021/12/08 07:49:25;;;;;;;4.10;1.40;;;5.20;1.00;;;;;;5093107;28;20207;-60
2021/12/08 07:51:58;;;;;;;4.00;1.63;;;5.10;1.00;;;;;;5092077;28;20210;-58
2021/12/08 07:54:26;;;;;;;7.10;1.40;;;5.20;1.00;;;;;;5093109;28;20355;-61
2021/12/08 07:56:57;;;;;;;3.20;1.30;;;5.20;1.00;;;;;;5092991;28;20276;-60
2021/12/08 07:59:25;;;;;;;5.00;1.47;;;5.20;1.00;;;;;;5092598;28;20211;-61
2021/12/08 08:01:56;;;;;;;4.90;1.70;;;5.20;1.00;;;;;;5092214;28;20228;-60
2021/12/08 08:04:26;;;;;;;4.90;1.30;;;5.20;1.00;;;;;;5106188;28;20232;-60
2021/12/08 08:06:56;;;;;;;3.87;1.30;;;5.20;1.00;;;;;;5113225;28;20204;-60
2021/12/08 08:09:25;;;;;;;3.03;1.30;;;5.20;1.00;;;;;;5112760;28;20726;-58
2021/12/08 08:12:00;;;;;;;3.03;1.10;;;5.20;1.00;;;;;;5112594;28;20785;-60
2021/12/08 08:14:32;;;;;;;4.77;1.53;;;5.20;1.00;;;;;;5112839;28;20597;-59
2021/12/08 08:17:00;;;;;;;2.67;1.40;;;5.10;1.00;;;;;;5113010;28;20740;-59
2021/12/08 08:19:30;;;;;;;2.67;1.33;;;5.10;1.00;;;;;;5112838;28;20207;-59
2021/12/08 08:22:00;;;;;;;5.57;2.00;;;5.20;1.00;;;;;;5112476;28;20233;-60
2021/12/08 08:24:29;;;;;;;3.80;1.30;;;5.20;1.00;;;;;;5112893;28;20462;-60
2021/12/08 08:27:00;;;;;;;3.40;1.57;;;5.20;1.00;;;;;;5112502;28;20248;-60
2021/12/08 08:29:29;;;;;;;5.57;1.40;;;5.20;1.00;;;;;;5112638;28;20637;-59
2021/12/08 08:31:59;;;;;;;7.23;1.57;;;5.20;1.00;;;;;;5112207;28;20574;-60
2021/12/08 08:34:28;;;;;;;3.53;1.37;;;5.20;1.00;;;;;;5112699;28;20241;-60
2021/12/08 08:36:56;;;;;;;4.37;1.80;;;5.20;1.00;;;;;;5112520;28;20208;-60
2021/12/08 08:39:26;;;;;;;4.13;1.70;;;5.30;1.00;;;;;;5112210;28;20250;-62
2021/12/08 08:41:59;;;;;;;4.63;1.33;;;5.30;1.00;;;;;;5112655;28;20752;-59
2021/12/08 08:44:30;;;;;;;5.07;1.17;;;5.30;1.00;;;;;;5112813;28;20220;-59
2021/12/08 08:47:00;;;;;;;3.80;1.43;;;5.40;1.00;;;;;;5112769;28;20204;-62
2021/12/08 08:49:30;;;;;;;5.73;1.70;;;5.40;1.00;;;;;;5112074;28;20831;-61
2021/12/08 08:52:01;;;;;;;9.87;1.50;;;5.40;1.00;;;;;;5095026;28;20207;-59
2021/12/08 08:54:32;;;;;;;3.57;1.37;;;5.40;1.00;;;;;;5091994;28;20349;-60
2021/12/08 08:57:01;;;;;;;4.67;1.33;;;5.50;1.00;;;;;;5092128;28;20209;-60
2021/12/08 08:59:34;;;;;;;6.53;1.77;;;5.50;1.00;;;;;;5091799;28;20922;-61
2021/12/08 09:02:08;;;;;;;4.20;1.40;;;5.40;1.00;;;;;;5091333;28;20641;-61
2021/12/08 09:04:39;;;;;;;6.80;1.77;;;5.50;1.00;;;;;;5091636;28;20642;-61
2021/12/08 09:07:12;;;;;;;6.03;1.30;;;5.50;1.00;;;;;;5091588;28;20575;-60
2021/12/08 09:09:44;;;;;;;6.77;1.10;;;5.50;1.00;;;;;;5091759;28;20209;-60
2021/12/08 09:12:17;;;;;;;3.77;1.40;;;5.60;1.00;;;;;;5091453;28;20290;-61
2021/12/08 09:14:49;;;;;;;3.93;1.50;;;5.60;1.00;;;;;;5091500;28;20224;-58
2021/12/08 09:17:20;;;;;;;9.47;1.60;;;5.60;1.00;;;;;;5091090;28;20213;-61
2021/12/08 09:19:51;;;;;;;4.27;1.80;;;5.70;1.00;;;;;;5091359;28;20699;-62
2021/12/08 09:22:24;;;;;;;8.27;2.13;;;5.70;1.00;;;;;;5091110;28;20230;-62
2021/12/08 09:24:54;;;;;;;5.37;1.23;;;5.70;1.00;;;;;;5091082;28;20272;-62
2021/12/08 09:27:26;;;;;;;9.30;1.63;;;5.70;1.00;;;;;;5091691;28;20199;-61
2021/12/08 09:29:58;;;;;;;3.13;1.37;;;5.70;1.00;;;;;;5091153;28;20211;-60
2021/12/08 09:32:31;;;;;;;6.27;1.33;;;5.80;1.00;;;;;;5091959;28;20573;-57
2021/12/08 09:35:01;;;;;;;5.23;1.40;;;5.80;1.00;;;;;;5091206;28;20234;-61
2021/12/08 09:37:32;;;;;;;5.83;1.33;;;5.90;1.00;;;;;;5091517;28;20202;-60
2021/12/08 09:40:12;;;;;;;9.03;1.93;;;5.90;1.00;;;;;;5091247;28;20228;-61
2021/12/08 09:42:42;;;;;;;3.93;1.70;;;5.90;1.00;;;;;;5091335;28;20743;-61
2021/12/08 09:45:20;;;;;;;6.50;1.47;;;5.90;1.00;;;;;;5094217;28;20821;-62
2021/12/08 09:47:47;;;;;;;6.70;1.43;;;5.90;1.00;;;;;;5094593;28;20190;-62
2021/12/08 09:50:15;;;;;;;8.93;1.37;;;5.90;1.00;;;;;;5091457;28;20209;-63
2021/12/08 09:52:44;;;;;;;5.50;1.40;;;5.90;1.00;;;;;;5094678;28;20217;-63
2021/12/08 09:55:13;;;;;;;6.43;1.60;;;5.90;1.00;;;;;;5077355;22;20233;-63
2021/12/08 09:57:40;;;;;;;10.20;1.60;;;6.00;1.00;;;;;;4991917;28;20687;-63
2021/12/08 10:00:08;;;;;;;5.20;1.67;;;6.00;1.00;;;;;;4992369;28;20211;-61
2021/12/08 10:02:37;;;;;;;3.03;1.17;;;6.10;1.00;;;;;;4991334;28;20632;-59
2021/12/08 10:05:09;;;;;;;5.33;1.40;;;6.00;1.00;;;;;;4992062;28;20276;-61
2021/12/08 10:07:37;;;;;;;3.93;1.83;;;6.00;1.00;;;;;;4992019;28;20215;-61
2021/12/08 10:10:05;;;;;;;4.87;1.07;;;6.10;1.00;;;;;;4992282;28;20210;-61
2021/12/08 10:12:34;;;;;;;6.47;1.50;;;6.10;1.00;;;;;;4991527;28;20610;-60
2021/12/08 10:15:01;;;;;;;3.50;1.60;;;6.10;1.00;;;;;;4992127;28;20238;-61
2021/12/08 10:17:27;;;;;;;5.20;1.37;;;6.20;1.00;;;;;;4991721;28;20584;-61
2021/12/08 10:20:15;;;;;;;10.03;1.90;;;6.20;1.00;;;;;;4991677;28;20219;-60
2021/12/08 10:22:44;;;;;;;7.83;1.67;;;6.20;1.00;;;;;;4991790;28;20235;-59
2021/12/08 10:25:15;;;;;;;4.57;1.50;;;6.30;1.00;;;;;;4991721;28;20261;-59
2021/12/08 10:28:05;;;;;;;9.07;1.13;;;6.30;1.00;;;;;;4991758;28;20218;-60
2021/12/08 10:30:34;;;;;;;5.43;1.33;;;6.30;1.00;;;;;;4991941;28;20261;-62
2021/12/08 10:33:07;;;;;;;7.83;1.23;;;6.30;1.00;;;;;;4991615;28;20205;-60
2021/12/08 10:35:47;;;;;;;5.07;1.27;;;6.30;1.00;;;;;;4991935;28;20217;-64
2021/12/08 10:38:16;;;;;;;5.17;1.83;;;6.30;99.90;;;;;;4991247;28;20235;-62
2021/12/08 10:40:58;;;;;;;6.93;1.70;;;6.30;99.90;;;;;;4991700;28;20211;-61
2021/12/08 10:43:25;;;;;;;5.73;1.53;;;6.40;99.90;;;;;;4991555;28;20219;-62
2021/12/08 10:46:04;;;;;;;5.17;1.83;;;6.50;1.00;;;;;;4991637;28;20215;-61
2021/12/08 10:48:36;;;;;;;7.80;1.73;;;6.50;1.00;;;;;;4991375;28;20690;-63
2021/12/08 10:54:25;;;;;;;5.73;1.87;;;6.50;1.00;;;;;;4991254;28;20245;-61
2021/12/08 10:56:56;;;;;;;4.53;1.87;;;6.50;1.00;;;;;;4991601;28;20207;-61
2021/12/08 10:59:24;;;;;;;5.13;1.70;;;6.50;1.00;;;;;;4990896;28;20214;-61
2021/12/08 11:01:51;;;;;;;6.43;1.33;;;6.60;1.00;;;;;;4991147;28;20581;-61
2021/12/08 11:04:19;;;;;;;5.07;1.53;;;6.60;1.00;;;;;;4990883;28;20227;-61
2021/12/08 11:06:48;;;;;;;6.33;1.93;;;6.50;1.00;;;;;;4991364;28;20218;-61
2021/12/08 11:09:19;;;;;;;7.10;1.90;;;6.60;1.00;;;;;;4991185;28;20593;-62
2021/12/08 11:11:47;;;;;;;6.37;1.60;;;6.60;1.00;;;;;;4990614;28;20585;-62
2021/12/08 11:14:15;;;;;;;6.10;1.53;;;6.60;1.00;;;;;;4991506;28;20231;-62
2021/12/08 11:16:44;;;;;;;5.13;1.80;;;6.60;1.00;;;;;;4990952;28;20265;-60
2021/12/08 11:19:14;;;;;;;7.83;1.70;;;6.50;99.90;;;;;;4990981;28;20211;-61
2021/12/08 11:21:43;;;;;;;8.10;2.27;;;6.40;99.90;;;;;;4990827;28;20302;-60
2021/12/08 11:24:19;;;;;;;8.33;1.80;;;6.40;99.90;;;;;;4990829;28;20251;-60
2021/12/08 11:26:47;;;;;;;5.87;2.37;;;6.30;99.90;;;;;;4991276;28;20210;-59
2021/12/08 11:29:16;;;;;;;5.23;1.87;;;6.30;99.90;;;;;;4990682;28;20250;-60
2021/12/08 11:31:45;;;;;;;6.13;1.93;;;6.40;99.90;;;;;;4990593;28;20214;-61
2021/12/08 11:34:18;;;;;;;7.27;1.90;;;6.40;99.90;;;;;;4990676;28;20276;-60
2021/12/08 11:36:46;;;;;;;5.83;1.60;;;6.40;99.90;;;;;;4990708;28;20210;-60
2021/12/08 11:39:17;;;;;;;6.57;1.70;;;6.40;99.90;;;;;;4990528;28;20214;-64
2021/12/08 11:41:45;;;;;;;6.03;1.43;;;6.40;99.90;;;;;;4990416;28;20206;-62
2021/12/08 11:44:15;;;;;;;5.07;1.80;;;6.40;99.90;;;;;;4990016;28;20242;-62
2021/12/08 11:46:49;;;;;;;5.43;1.57;;;6.50;99.90;;;;;;4990586;28;20246;-62
2021/12/08 11:49:16;;;;;;;7.07;1.90;;;6.40;99.90;;;;;;4990381;28;20216;-62
2021/12/08 11:51:59;;;;;;;6.60;1.73;;;6.50;99.90;;;;;;4990333;28;20219;-62
2021/12/08 11:54:38;;;;;;;7.77;1.80;;;6.60;99.90;;;;;;4990287;28;20243;-62
2021/12/08 11:57:11;;;;;;;7.53;1.83;;;6.60;99.90;;;;;;4990760;28;20199;-61
2021/12/08 12:00:11;;;;;;;5.50;1.40;;;6.60;99.90;;;;;;4990220;28;20618;-61
2021/12/08 12:02:40;;;;;;;6.23;1.63;;;6.60;99.90;;;;;;4989857;28;20818;-61
2021/12/08 12:05:10;;;;;;;4.20;1.60;;;6.70;99.90;;;;;;4990492;28;20227;-60
2021/12/08 12:07:39;;;;;;;6.80;1.70;;;6.80;99.90;;;;;;4989863;28;20272;-59
2021/12/08 12:10:31;;;;;;;5.93;1.30;;;6.80;99.90;;;;;;4990091;28;20207;-65
2021/12/08 12:12:58;;;;;;;4.97;1.10;;;7.10;99.90;;;;;;4989989;28;20268;-63
2021/12/08 12:15:26;;;;;;;4.77;1.87;;;7.10;99.90;;;;;;4989145;28;20293;-62
2021/12/08 12:17:53;;;;;;;4.87;1.10;;;7.10;99.90;;;;;;4989780;28;20235;-62
2021/12/08 12:20:25;;;;;;;5.90;1.80;;;7.20;99.90;;;;;;4990027;28;20598;-62
2021/12/08 12:23:20;;;;;;;6.00;1.40;;;7.20;99.90;;;;;;4989959;28;20216;-61
2021/12/08 12:26:08;;;;;;;7.13;1.47;;;7.20;99.90;;;;;;4989920;28;20583;-59
2021/12/08 12:28:58;;;;;;;4.10;1.70;;;6.80;99.90;;;;;;4989712;28;20254;-59
2021/12/08 12:31:31;;;;;;;5.97;1.10;;;6.60;99.90;;;;;;4989619;28;20215;-59
2021/12/08 12:33:57;;;;;;;4.50;1.33;;;6.70;99.90;;;;;;4989979;28;20231;-59
2021/12/08 12:36:28;;;;;;;4.00;1.37;;;6.50;99.90;;;;;;4989944;28;20223;-58
2021/12/08 12:39:11;;;;;;;5.63;1.47;;;6.50;99.90;;;;;;4989084;28;20630;-59
2021/12/08 12:41:39;;;;;;;5.37;1.33;;;6.50;99.90;;;;;;4989413;28;20215;-58
2021/12/08 12:44:19;;;;;;;7.30;1.67;;;6.50;99.90;;;;;;4989490;28;20235;-55
2021/12/08 12:47:23;;;;;;;2.63;1.00;;;6.40;99.90;;;;;;4989807;28;20218;-57
2021/12/08 12:50:14;;;;;;;7.00;1.97;;;6.50;99.90;;;;;;4989354;28;20573;-58
2021/12/08 12:52:43;;;;;;;6.73;1.20;;;6.60;99.90;;;;;;4989274;28;20203;-59
2021/12/08 12:55:14;;;;;;;6.40;1.70;;;6.60;99.90;;;;;;4989642;28;20236;-60
2021/12/08 12:58:13;;;;;;;5.43;1.13;;;6.60;99.90;;;;;;4989445;28;20221;-59
2021/12/08 13:00:42;;;;;;;10.37;2.73;;;6.70;99.90;;;;;;4989581;28;20215;-56
2021/12/08 13:03:10;;;;;;;10.77;1.97;;;6.70;99.90;;;;;;4989562;28;20240;-60
2021/12/08 13:05:47;;;;;;;10.93;1.80;;;6.70;99.90;;;;;;4989290;28;20215;-59
2021/12/08 13:08:29;;;;;;;6.87;1.47;;;6.60;99.90;;;;;;4989380;28;20220;-59
2021/12/08 13:10:56;;;;;;;8.43;1.47;;;6.60;99.90;;;;;;4989370;28;20904;-60
2021/12/08 13:13:24;;;;;;;3.80;1.10;;;6.50;99.90;;;;;;4989254;28;20658;-60
2021/12/08 13:15:51;;;;;;;8.80;1.10;;;6.50;99.90;;;;;;4989337;28;20264;-60
2021/12/08 13:18:19;;;;;;;5.20;1.97;;;6.50;99.90;;;;;;4989124;28;20233;-62
2021/12/08 13:20:54;;;;;;;6.33;1.40;;;6.50;99.90;;;;;;4989257;28;20204;-61
2021/12/08 13:23:23;;;;;;;6.00;1.07;;;6.50;99.90;;;;;;4988945;28;20315;-60
2021/12/08 13:25:56;;;;;;;7.23;1.57;;;6.40;99.90;;;;;;4989142;28;20212;-60
2021/12/08 13:28:30;;;;;;;5.10;1.53;;;6.40;99.90;;;;;;4988901;28;20275;-61
2021/12/08 13:31:07;;;;;;;7.53;1.20;;;6.40;99.90;;;;;;4989295;28;20218;-62
2021/12/08 13:33:38;;;;;;;3.97;0.90;;;6.30;99.90;;;;;;4988862;28;20225;-61
2021/12/08 13:36:31;;;;;;;6.67;1.17;;;6.30;99.90;;;;;;4989537;28;20215;-60
2021/12/08 13:39:21;;;;;;;4.00;1.13;;;6.30;99.90;;;;;;4988446;28;20245;-59
2021/12/08 13:41:57;;;;;;;3.67;0.97;;;6.30;99.90;;;;;;4988701;28;20298;-62
2021/12/08 13:44:33;;;;;;;4.07;1.40;;;6.20;99.90;;;;;;4988711;28;20597;-61
2021/12/08 13:47:01;;;;;;;7.03;1.60;;;6.20;99.90;;;;;;4989128;28;20577;-58
2021/12/08 13:49:31;;;;;;;5.20;1.30;;;6.20;99.90;;;;;;4988853;28;20221;-59
2021/12/08 13:52:18;;;;;;;4.07;1.30;;;6.10;99.90;;;;;;4988293;28;20308;-60
2021/12/08 13:54:46;;;;;;;6.47;1.03;;;6.10;99.90;;;;;;4988793;28;20229;-59
2021/12/08 13:57:36;;;;;;;2.17;1.20;;;6.10;99.90;;;;;;4988573;28;20275;-60